createdAt,value
2018-12-19T00:02:24.855Z,8.13
2018-12-19T00:04:53.122Z,11.15
2018-12-19T00:07:21.346Z,12.18
2018-12-19T00:09:49.541Z,14.95
2018-12-19T00:12:17.747Z,11.05
2018-12-19T00:14:45.953Z,12.40
2018-12-19T00:17:14.183Z,15.85
2018-12-19T00:19:42.405Z,10.93
2018-12-19T00:22:10.584Z,14.63
2018-12-19T00:24:38.870Z,21.75
2018-12-19T00:27:07.127Z,20.70
2018-12-19T00:29:35.311Z,19.90
2018-12-19T00:32:03.656Z,25.70
2018-12-19T00:34:31.900Z,21.62
2018-12-19T00:37:00.099Z,22.40
2018-12-19T00:39:28.304Z,28.62
2018-12-19T00:41:56.535Z,18.27
2018-12-19T00:44:24.736Z,16.23
2018-12-19T00:46:52.989Z,14.53
2018-12-19T00:49:21.295Z,13.60
2018-12-19T00:51:49.275Z,11.25
2018-12-19T00:54:17.218Z,13.13
2018-12-19T00:56:45.397Z,8.28
2018-12-19T00:59:13.646Z,7.87
2018-12-19T01:01:41.887Z,10.75
2018-12-19T01:04:10.143Z,15.75
2018-12-19T01:06:38.462Z,9.28
2018-12-19T01:09:07.648Z,10.43
2018-12-19T01:11:35.862Z,8.23
2018-12-19T01:14:04.060Z,10.50
2018-12-19T01:16:32.360Z,8.43
2018-12-19T01:19:00.645Z,8.05
2018-12-19T01:21:28.851Z,12.78
2018-12-19T01:23:57.131Z,13.98
2018-12-19T01:26:25.318Z,26.30
2018-12-19T01:28:53.498Z,17.90
2018-12-19T01:31:21.718Z,16.87
2018-12-19T01:33:49.899Z,19.15
2018-12-19T01:36:18.228Z,26.50
2018-12-19T01:38:46.467Z,27.77
2018-12-19T01:41:14.711Z,29.65
2018-12-19T01:43:42.887Z,22.77
2018-12-19T01:46:11.176Z,26.85
2018-12-19T01:48:39.295Z,21.65
2018-12-19T01:51:07.546Z,21.93
2018-12-19T01:53:35.724Z,19.57
2018-12-19T01:56:04.009Z,17.92
2018-12-19T01:58:32.215Z,21.50
2018-12-19T02:01:00.393Z,19.92
2018-12-19T02:03:28.615Z,23.32
2018-12-19T02:05:56.838Z,22.05
2018-12-19T02:08:25.144Z,16.60
2018-12-19T02:10:53.416Z,13.00
2018-12-19T02:13:21.623Z,17.73
2018-12-19T02:15:49.847Z,14.70
2018-12-19T02:18:18.122Z,12.23
2018-12-19T02:20:46.343Z,6.90
2018-12-19T02:23:14.539Z,15.13
2018-12-19T02:25:42.765Z,10.45
2018-12-19T02:28:10.979Z,9.90
2018-12-19T02:30:39.236Z,9.58
2018-12-19T02:33:07.508Z,7.65
2018-12-19T02:35:35.692Z,11.18
2018-12-19T02:38:03.927Z,13.98
2018-12-19T02:40:32.128Z,7.97
2018-12-19T02:43:00.402Z,8.33
2018-12-19T02:45:28.462Z,6.28
2018-12-19T02:47:56.533Z,13.72
2018-12-19T02:50:24.712Z,12.28
2018-12-19T02:52:52.896Z,12.93
2018-12-19T02:55:21.081Z,10.15
2018-12-19T02:57:49.326Z,14.28
2018-12-19T03:00:17.620Z,20.85
2018-12-19T03:02:45.881Z,12.73
2018-12-19T03:05:14.078Z,11.88
2018-12-19T03:07:42.246Z,16.50
2018-12-19T03:10:10.504Z,10.90
2018-12-19T03:12:38.681Z,8.78
2018-12-19T03:15:06.876Z,11.85
2018-12-19T03:17:35.137Z,11.30
2018-12-19T03:20:03.319Z,10.82
2018-12-19T03:22:31.521Z,7.65
2018-12-19T03:24:59.774Z,11.25
2018-12-19T03:27:27.987Z,6.87
2018-12-19T03:29:56.239Z,10.60
2018-12-19T03:32:24.512Z,12.50
2018-12-19T03:34:52.752Z,11.90
2018-12-19T03:37:21.003Z,10.78
2018-12-19T03:39:50.416Z,13.50
2018-12-19T03:42:18.540Z,11.57
2018-12-19T03:44:46.752Z,11.97
2018-12-19T03:47:14.934Z,9.58
2018-12-19T03:49:43.466Z,15.20
2018-12-19T03:52:11.714Z,9.45
2018-12-19T03:54:40.035Z,9.70
2018-12-19T03:57:09.680Z,8.70
2018-12-19T03:59:38.893Z,15.18
2018-12-19T04:02:07.086Z,14.20
2018-12-19T04:04:35.276Z,13.20
2018-12-19T04:07:03.493Z,14.65
2018-12-19T04:09:31.688Z,11.53
2018-12-19T04:11:59.872Z,13.28
2018-12-19T04:14:28.850Z,12.63
2018-12-19T04:16:57.059Z,13.80
2018-12-19T04:19:25.240Z,18.27
2018-12-19T04:21:53.572Z,15.35
2018-12-19T04:24:21.899Z,12.35
2018-12-19T04:26:50.121Z,11.15
2018-12-19T04:29:18.352Z,15.08
2018-12-19T04:31:46.595Z,10.18
2018-12-19T04:34:15.883Z,9.40
2018-12-19T04:36:44.126Z,11.00
2018-12-19T04:39:12.295Z,7.35
2018-12-19T04:41:40.241Z,7.60
2018-12-19T04:44:08.293Z,9.55
2018-12-19T04:46:36.327Z,13.55
2018-12-19T04:49:04.525Z,10.60
2018-12-19T04:51:32.788Z,10.00
2018-12-19T04:54:01.090Z,8.15
2018-12-19T04:56:29.312Z,8.03
2018-12-19T04:58:57.544Z,9.65
2018-12-19T05:01:25.792Z,14.90
2018-12-19T05:03:54.075Z,16.27
2018-12-19T05:06:22.467Z,12.60
2018-12-19T05:08:50.649Z,11.15
2018-12-19T05:11:18.819Z,11.57
2018-12-19T05:13:47.067Z,13.58
2018-12-19T05:16:15.291Z,11.10
2018-12-19T05:18:43.472Z,11.20
2018-12-19T05:21:11.684Z,14.75
2018-12-19T05:23:39.848Z,12.70
2018-12-19T05:26:08.070Z,9.75
2018-12-19T05:28:36.355Z,10.93
2018-12-19T05:31:04.519Z,10.58
2018-12-19T05:33:32.738Z,11.65
2018-12-19T05:36:00.717Z,10.53
2018-12-19T05:38:28.684Z,10.63
2018-12-19T05:40:56.859Z,8.43
2018-12-19T05:43:25.034Z,7.92
2018-12-19T05:45:53.358Z,9.48
2018-12-19T05:48:21.574Z,10.95
2018-12-19T05:50:49.814Z,11.55
2018-12-19T05:53:18.035Z,9.58
2018-12-19T05:55:46.256Z,14.87
2018-12-19T05:58:14.490Z,11.53
2018-12-19T06:00:42.680Z,19.17
2018-12-19T06:03:11.692Z,20.75
2018-12-19T06:05:39.892Z,12.68
2018-12-19T06:08:08.086Z,12.82
2018-12-19T06:10:36.288Z,14.93
2018-12-19T06:13:04.472Z,11.45
2018-12-19T06:15:32.751Z,12.07
2018-12-19T06:18:00.931Z,12.47
2018-12-19T06:20:29.134Z,11.00
2018-12-19T06:22:57.355Z,9.70
2018-12-19T06:25:25.632Z,11.68
2018-12-19T06:27:53.928Z,11.48
2018-12-19T06:30:22.483Z,10.08
2018-12-19T06:32:50.746Z,19.10
2018-12-19T06:35:18.936Z,12.68
2018-12-19T06:37:46.933Z,13.78
2018-12-19T06:40:14.858Z,17.40
2018-12-19T06:42:43.081Z,11.20
2018-12-19T06:45:11.278Z,16.27
2018-12-19T06:47:39.467Z,15.38
2018-12-19T06:50:09.057Z,17.42
2018-12-19T06:52:37.419Z,11.25
2018-12-19T06:55:06.022Z,13.85
2018-12-19T06:57:34.194Z,15.58
2018-12-19T07:00:02.416Z,18.17
2018-12-19T07:02:30.685Z,28.47
2018-12-19T07:04:58.991Z,29.27
2018-12-19T07:07:27.257Z,18.15
2018-12-19T07:09:55.445Z,15.05
2018-12-19T07:12:23.624Z,14.90
2018-12-19T07:14:51.908Z,12.73
2018-12-19T07:17:20.135Z,13.58
2018-12-19T07:19:48.336Z,19.95
2018-12-19T07:22:16.654Z,22.80
2018-12-19T07:24:44.828Z,28.95
2018-12-19T07:27:13.028Z,33.88
2018-12-19T07:29:41.240Z,34.73
2018-12-19T07:32:09.512Z,29.12
2018-12-19T07:34:44.044Z,19.77
2018-12-19T07:37:07.708Z,61.30
2018-12-19T07:39:35.635Z,27.32
2018-12-19T07:42:03.636Z,29.95
2018-12-19T07:44:31.804Z,22.77
2018-12-19T07:47:00.000Z,18.15
2018-12-19T07:49:28.252Z,22.20
2018-12-19T07:51:56.435Z,21.93
2018-12-19T07:54:24.650Z,19.65
2018-12-19T07:56:52.868Z,23.70
2018-12-19T07:59:21.099Z,18.52
2018-12-19T08:01:49.277Z,25.70
2018-12-19T08:04:17.732Z,26.00
2018-12-19T08:06:45.958Z,26.85
2018-12-19T08:09:14.149Z,24.00
2018-12-19T08:11:42.344Z,26.40
2018-12-19T08:14:10.578Z,28.57
2018-12-19T08:16:38.811Z,46.02
2018-12-19T08:19:07.002Z,105.58
2018-12-19T08:21:35.224Z,66.45
2018-12-19T08:24:03.420Z,65.87
2018-12-19T08:26:31.604Z,55.55
2018-12-19T08:28:59.906Z,44.95
2018-12-19T08:31:28.332Z,34.50
2018-12-19T08:33:56.560Z,50.03
2018-12-19T08:36:24.611Z,75.28
2018-12-19T08:38:52.539Z,62.85
2018-12-19T08:41:20.489Z,57.90
2018-12-19T08:43:48.677Z,39.40
2018-12-19T08:46:16.867Z,36.48
2018-12-19T08:48:45.170Z,42.35
2018-12-19T08:51:13.358Z,44.83
2018-12-19T08:53:41.573Z,40.58
2018-12-19T08:56:09.859Z,48.00
2018-12-19T08:58:38.039Z,37.80
2018-12-19T09:01:06.249Z,30.50
2018-12-19T09:03:34.618Z,34.20
2018-12-19T09:06:02.857Z,25.00
2018-12-19T09:08:31.060Z,24.87
2018-12-19T09:11:05.413Z,35.15
2018-12-19T09:13:29.585Z,35.63
2018-12-19T09:15:58.199Z,21.10
2018-12-19T09:18:26.400Z,37.05
2018-12-19T09:20:54.730Z,28.60
2018-12-19T09:23:22.984Z,35.88
2018-12-19T09:25:51.187Z,32.30
2018-12-19T09:28:19.388Z,31.15
2018-12-19T09:30:47.691Z,28.00
2018-12-19T09:33:15.912Z,26.15
2018-12-19T09:35:43.854Z,29.00
2018-12-19T09:38:12.052Z,32.60
2018-12-19T09:40:40.314Z,34.10
2018-12-19T09:43:08.535Z,43.10
2018-12-19T09:45:36.714Z,32.13
2018-12-19T09:48:04.989Z,29.23
2018-12-19T09:50:33.270Z,32.50
2018-12-19T09:53:01.465Z,22.32
2018-12-19T09:55:29.660Z,27.77
2018-12-19T09:57:57.923Z,23.95
2018-12-19T10:00:28.480Z,23.62
2018-12-19T10:02:56.734Z,25.50
2018-12-19T10:05:25.495Z,20.70
2018-12-19T10:07:53.814Z,20.02
2018-12-19T10:10:21.999Z,21.85
2018-12-19T10:12:50.188Z,21.33
2018-12-19T10:15:18.479Z,20.95
2018-12-19T10:17:46.672Z,21.42
2018-12-19T10:20:14.865Z,23.02
2018-12-19T10:22:43.051Z,21.33
2018-12-19T10:25:14.165Z,17.40
2018-12-19T10:27:42.440Z,17.62
2018-12-19T10:30:12.376Z,14.60
2018-12-19T10:32:40.890Z,21.45
2018-12-19T10:35:10.464Z,24.67
2018-12-19T10:37:38.699Z,18.27
2018-12-19T10:40:11.011Z,24.43
2018-12-19T10:42:39.055Z,26.65
2018-12-19T10:45:09.195Z,19.67
2018-12-19T10:47:37.423Z,17.90
2018-12-19T10:50:08.138Z,15.65
2018-12-19T10:52:36.338Z,18.13
2018-12-19T10:55:05.679Z,21.77
2018-12-19T10:57:33.889Z,15.70
2018-12-19T11:00:02.078Z,17.83
2018-12-19T11:02:30.361Z,19.23
2018-12-19T11:04:58.653Z,22.20
2018-12-19T11:07:26.847Z,22.25
2018-12-19T11:09:55.135Z,31.10
2018-12-19T11:12:23.351Z,25.17
2018-12-19T11:14:51.537Z,22.97
2018-12-19T11:17:19.727Z,21.57
2018-12-19T11:19:48.012Z,23.27
2018-12-19T11:22:16.205Z,28.50
2018-12-19T11:24:44.406Z,30.10
2018-12-19T11:27:12.658Z,34.67
2018-12-19T11:29:40.856Z,34.57
2018-12-19T11:32:09.036Z,30.75
2018-12-19T11:34:37.268Z,36.53
2018-12-19T11:37:05.476Z,51.93
2018-12-19T11:39:33.414Z,48.60
2018-12-19T11:42:01.456Z,40.83
2018-12-19T11:44:29.412Z,41.73
2018-12-19T11:46:57.704Z,33.20
2018-12-19T11:49:25.905Z,39.50
2018-12-19T11:51:54.180Z,29.70
2018-12-19T11:54:22.421Z,33.90
2018-12-19T11:56:50.652Z,30.07
2018-12-19T11:59:18.880Z,28.70
2018-12-19T12:04:21.778Z,26.30
2018-12-19T12:06:50.068Z,31.07
2018-12-19T12:09:18.253Z,27.37
2018-12-19T12:11:46.502Z,29.70
2018-12-19T12:14:14.684Z,27.27
2018-12-19T12:16:42.959Z,26.40
2018-12-19T12:19:11.135Z,27.73
2018-12-19T12:21:39.316Z,22.90
2018-12-19T12:24:07.542Z,30.43
2018-12-19T12:26:35.711Z,31.47
2018-12-19T12:29:03.892Z,40.03
2018-12-19T12:31:32.134Z,25.43
2018-12-19T12:34:00.323Z,29.00
2018-12-19T12:36:28.529Z,28.13
2018-12-19T12:38:56.720Z,25.60
2018-12-19T12:41:24.909Z,111.50
2018-12-19T12:43:53.119Z,33.90
2018-12-19T12:46:21.310Z,28.90
2018-12-19T12:48:49.516Z,35.37
2018-12-19T12:51:17.791Z,35.57
2018-12-19T12:53:52.411Z,32.00
2018-12-19T12:56:20.597Z,29.10
2018-12-19T12:58:48.971Z,20.23
2018-12-19T13:01:17.160Z,24.20
2018-12-19T13:03:45.378Z,19.00
2018-12-19T13:06:13.604Z,22.33
2018-12-19T13:08:41.788Z,18.00
2018-12-19T13:11:09.969Z,16.67
2018-12-19T13:13:38.160Z,13.03
2018-12-19T13:16:06.338Z,15.07
2018-12-19T13:18:34.547Z,24.60
2018-12-19T13:21:02.831Z,17.73
2018-12-19T13:23:31.020Z,19.43
2018-12-19T13:25:59.283Z,13.30
2018-12-19T13:28:27.528Z,20.07
2018-12-19T13:30:55.704Z,22.30
2018-12-19T13:33:23.964Z,32.83
2018-12-19T13:35:52.153Z,15.13
2018-12-19T13:38:20.368Z,20.10
2018-12-19T13:40:48.549Z,14.90
2018-12-19T13:43:16.858Z,15.10
2018-12-19T13:45:45.074Z,15.03
2018-12-19T13:48:13.006Z,20.83
2018-12-19T13:50:40.938Z,20.27
2018-12-19T13:53:09.139Z,17.10
2018-12-19T13:55:37.310Z,16.03
2018-12-19T13:58:07.188Z,19.07
2018-12-19T14:00:35.693Z,14.43
2018-12-19T14:03:03.914Z,16.17
2018-12-19T14:05:32.232Z,17.43
2018-12-19T14:08:00.420Z,29.67
2018-12-19T14:10:28.646Z,34.53
2018-12-19T14:12:56.947Z,34.83
2018-12-19T14:15:25.123Z,43.90
2018-12-19T14:17:53.309Z,28.63
2018-12-19T14:20:21.523Z,31.53
2018-12-19T14:22:49.743Z,32.10
2018-12-19T14:25:17.946Z,29.20
2018-12-19T14:27:46.139Z,36.40
2018-12-19T14:30:14.318Z,40.63
2018-12-19T14:32:42.500Z,39.03
2018-12-19T14:35:10.774Z,44.30
2018-12-19T14:37:38.958Z,47.70
2018-12-19T14:40:07.281Z,29.10
2018-12-19T14:42:35.455Z,20.60
2018-12-19T14:45:03.813Z,37.30
2018-12-19T14:47:32.083Z,43.30
2018-12-19T14:50:00.121Z,35.63
2018-12-19T14:52:28.439Z,27.53
2018-12-19T14:54:56.389Z,29.60
2018-12-19T14:57:24.639Z,27.03
2018-12-19T14:59:52.814Z,31.67
2018-12-19T15:02:20.998Z,35.30
2018-12-19T15:04:49.195Z,29.13
2018-12-19T15:07:17.435Z,28.63
2018-12-19T15:09:45.652Z,23.67
2018-12-19T15:12:13.947Z,26.90
2018-12-19T15:14:42.206Z,21.73
2018-12-19T15:17:13.865Z,35.30
2018-12-19T15:19:40.650Z,36.57
2018-12-19T15:22:08.912Z,28.50
2018-12-19T15:24:37.164Z,28.07
2018-12-19T15:27:05.364Z,27.40
2018-12-19T15:29:33.546Z,28.33
2018-12-19T15:32:01.730Z,32.67
2018-12-19T15:34:29.977Z,27.57
2018-12-19T15:36:58.195Z,29.23
2018-12-19T15:39:26.410Z,27.63
2018-12-19T15:41:54.584Z,16.50
2018-12-19T15:44:22.811Z,31.60
2018-12-19T15:46:50.740Z,28.03
2018-12-19T15:49:18.763Z,28.33
2018-12-19T15:51:46.991Z,59.13
2018-12-19T15:54:15.218Z,28.00
2018-12-19T15:56:43.405Z,24.13
2018-12-19T15:59:11.650Z,26.23
2018-12-19T16:01:39.880Z,33.17
2018-12-19T16:04:08.083Z,33.50
2018-12-19T16:06:36.280Z,37.33
2018-12-19T16:09:05.560Z,31.67
2018-12-19T16:11:33.753Z,34.17
2018-12-19T16:14:02.664Z,45.57
2018-12-19T16:16:30.840Z,37.87
2018-12-19T16:18:59.028Z,47.73
2018-12-19T16:21:27.283Z,60.87
2018-12-19T16:23:55.520Z,48.87
2018-12-19T16:26:23.778Z,55.80
2018-12-19T16:28:51.950Z,94.63
2018-12-19T16:31:20.243Z,101.20
2018-12-19T16:33:48.420Z,94.80
2018-12-19T16:36:16.605Z,115.63
2018-12-19T16:38:44.851Z,110.30
2018-12-19T16:41:13.075Z,110.63
2018-12-19T16:43:41.375Z,96.33
2018-12-19T16:46:09.551Z,71.63
2018-12-19T16:48:37.486Z,62.70
2018-12-19T16:51:05.713Z,62.13
2018-12-19T16:53:33.739Z,63.33
2018-12-19T16:56:02.003Z,54.40
2018-12-19T16:58:30.230Z,50.00
2018-12-19T17:00:58.420Z,56.63
2018-12-19T17:03:26.678Z,46.10
2018-12-19T17:05:54.942Z,45.93
2018-12-19T17:08:23.273Z,42.40
2018-12-19T17:10:51.490Z,51.73
2018-12-19T17:13:19.747Z,59.17
2018-12-19T17:15:47.923Z,53.27
2018-12-19T17:18:16.129Z,67.97
2018-12-19T17:20:44.320Z,59.73
2018-12-19T17:23:12.575Z,73.63
2018-12-19T17:25:40.862Z,78.83
2018-12-19T17:28:09.038Z,63.60
2018-12-19T17:30:37.382Z,63.23
2018-12-19T17:33:05.578Z,72.87
2018-12-19T17:35:33.807Z,70.57
2018-12-19T17:38:02.027Z,57.37
2018-12-19T17:40:30.360Z,69.00
2018-12-19T17:42:59.554Z,61.77
2018-12-19T17:45:28.098Z,58.17
2018-12-19T17:47:56.090Z,59.33
2018-12-19T17:50:24.040Z,56.28
2018-12-19T17:52:52.239Z,58.10
2018-12-19T17:55:20.445Z,90.63
2018-12-19T17:57:48.644Z,84.13
2018-12-19T18:00:16.973Z,78.35
2018-12-19T18:02:45.157Z,73.57
2018-12-19T18:05:13.357Z,87.47
2018-12-19T18:07:41.552Z,57.55
2018-12-19T18:10:09.820Z,53.00
2018-12-19T18:12:38.012Z,63.13
2018-12-19T18:15:06.258Z,53.68
2018-12-19T18:17:34.440Z,61.05
2018-12-19T18:20:02.759Z,60.12
2018-12-19T18:22:30.956Z,73.65
2018-12-19T18:24:59.218Z,69.12
2018-12-19T18:27:27.462Z,94.15
2018-12-19T18:29:55.744Z,124.80
2018-12-19T18:32:23.987Z,115.55
2018-12-19T18:34:52.175Z,96.60
2018-12-19T18:37:20.462Z,86.17
2018-12-19T18:39:48.841Z,69.97
2018-12-19T18:42:17.134Z,95.32
2018-12-19T18:44:46.424Z,81.80
2018-12-19T18:47:14.674Z,89.65
2018-12-19T18:49:49.191Z,162.55
2018-12-19T18:52:17.390Z,196.22
2018-12-19T18:54:45.580Z,72.27
2018-12-19T18:57:13.607Z,65.60
2018-12-19T18:59:41.885Z,62.38
2018-12-19T19:02:10.217Z,67.80
2018-12-19T19:04:38.472Z,59.00
2018-12-19T19:07:06.851Z,65.95
2018-12-19T19:09:35.234Z,82.92
2018-12-19T19:12:03.539Z,63.65
2018-12-19T19:17:06.367Z,75.08
2018-12-19T19:19:34.676Z,89.05
2018-12-19T19:22:02.878Z,65.85
2018-12-19T19:24:31.060Z,76.47
2018-12-19T19:26:59.330Z,83.15
2018-12-19T19:29:27.695Z,109.45
2018-12-19T19:31:55.895Z,113.17
2018-12-19T19:34:25.175Z,94.45
2018-12-19T19:39:28.201Z,91.72
2018-12-19T19:41:56.415Z,119.42
2018-12-19T19:44:24.708Z,147.22
2018-12-19T19:46:52.998Z,155.18
2018-12-19T19:49:21.171Z,142.32
2018-12-19T19:51:49.446Z,56.18
2018-12-19T19:54:17.695Z,65.85
2018-12-19T19:56:45.650Z,94.58
2018-12-19T19:59:13.674Z,89.60
2018-12-19T20:01:41.742Z,76.75
2018-12-19T20:04:10.038Z,68.85
2018-12-19T20:06:38.235Z,80.70
2018-12-19T20:09:08.340Z,87.97
2018-12-19T20:11:36.548Z,77.45
2018-12-19T20:14:04.846Z,75.72
2018-12-19T20:16:37.347Z,69.77
2018-12-19T20:19:05.578Z,67.97
2018-12-19T20:21:33.898Z,50.50
2018-12-19T20:24:02.162Z,61.02
2018-12-19T20:26:30.413Z,62.55
2018-12-19T20:28:58.608Z,47.70
2018-12-19T20:31:26.879Z,48.38
2018-12-19T20:33:55.157Z,64.10
2018-12-19T20:36:23.463Z,51.77
2018-12-19T20:38:51.717Z,64.80
2018-12-19T20:41:19.895Z,59.30
2018-12-19T20:43:48.109Z,66.53
2018-12-19T20:46:16.400Z,63.63
2018-12-19T20:48:44.722Z,65.00
2018-12-19T20:51:12.986Z,46.68
2018-12-19T20:53:41.225Z,49.33
2018-12-19T20:56:09.572Z,54.40
2018-12-19T20:58:37.609Z,49.05
2018-12-19T21:01:05.981Z,52.70
2018-12-19T21:03:34.239Z,61.75
2018-12-19T21:06:02.448Z,81.07
2018-12-19T21:08:30.663Z,57.13
2018-12-19T21:10:58.855Z,51.73
2018-12-19T21:13:27.124Z,35.10
2018-12-19T21:15:55.407Z,24.80
2018-12-19T21:18:28.996Z,16.47
2018-12-19T21:20:57.345Z,17.17
2018-12-19T21:23:25.515Z,17.40
2018-12-19T21:25:53.700Z,17.00
2018-12-19T21:28:21.880Z,13.43
2018-12-19T21:30:50.097Z,18.00
2018-12-19T21:33:18.406Z,22.47
2018-12-19T21:35:46.648Z,15.27
2018-12-19T21:38:15.115Z,13.50
2018-12-19T21:40:43.323Z,22.13
2018-12-19T21:43:11.671Z,25.57
2018-12-19T21:45:39.938Z,35.63
2018-12-19T21:48:08.236Z,29.97
2018-12-19T21:50:36.230Z,36.57
2018-12-19T21:53:04.514Z,37.60
2018-12-19T21:55:33.568Z,51.10
2018-12-19T21:58:01.961Z,49.63
2018-12-19T22:00:36.848Z,35.20
2018-12-19T22:03:07.454Z,40.57
2018-12-19T22:05:38.213Z,33.33
2018-12-19T22:08:06.438Z,29.97
2018-12-19T22:10:34.817Z,30.17
2018-12-19T22:13:03.506Z,30.47
2018-12-19T22:15:31.832Z,23.53
2018-12-19T22:18:05.417Z,25.43
2018-12-19T22:20:40.422Z,19.52
2018-12-19T22:23:08.923Z,15.10
2018-12-19T22:25:37.329Z,29.93
2018-12-19T22:28:05.689Z,27.03
2018-12-19T22:30:34.043Z,24.20
2018-12-19T22:33:02.424Z,22.42
2018-12-19T22:35:30.794Z,25.63
2018-12-19T22:37:59.130Z,40.78
2018-12-19T22:40:27.436Z,35.23
2018-12-19T22:42:56.134Z,30.12
2018-12-19T22:45:24.396Z,32.53
2018-12-19T22:47:52.753Z,30.00
2018-12-19T22:50:21.070Z,30.08
2018-12-19T22:52:49.324Z,33.33
2018-12-19T22:55:17.691Z,28.50
2018-12-19T22:57:45.857Z,30.70
2018-12-19T23:00:17.416Z,32.50
2018-12-19T23:02:51.658Z,32.55
2018-12-19T23:05:25.489Z,28.80
2018-12-19T23:07:53.857Z,24.23
2018-12-19T23:10:22.285Z,209.25
2018-12-19T23:12:50.722Z,176.03
2018-12-19T23:15:20.067Z,147.17
2018-12-19T23:17:48.455Z,151.95
2018-12-19T23:20:16.894Z,112.03
2018-12-19T23:22:45.169Z,107.12
2018-12-19T23:25:13.719Z,71.02
2018-12-19T23:27:42.073Z,62.95
2018-12-19T23:30:10.626Z,45.38
2018-12-19T23:32:39.229Z,29.98
2018-12-19T23:35:07.993Z,29.23
2018-12-19T23:37:36.477Z,30.43
2018-12-19T23:40:05.238Z,47.83
2018-12-19T23:42:33.807Z,48.17
2018-12-19T23:45:02.279Z,39.40
2018-12-19T23:47:30.705Z,36.13
2018-12-19T23:49:59.179Z,29.70
2018-12-19T23:52:27.602Z,20.53
2018-12-19T23:54:56.052Z,27.07
2018-12-19T23:57:24.153Z,23.20
2018-12-19T23:59:52.393Z,21.95
